Flight Briefing for CPX963

Departure Arrival
Chicago/Rockford International Airport (KRFD)
Click to view FAA NOTAMS
Joint Base McGuire Dix Lakehurst (KWRI)
Click to view FAA NOTAMS
Departure Time Arrival Time
N/A N/A
Aircraft Distance
B767-300BDSF 670nm
Departure METAR Arrival METAR
KRFD 200854Z 20008KT 10SM OVC065 04/M01 A3014 RMK AO2 SLP210 T00441006 58020 KWRI 200756Z AUTO 00000KT 10SM CLR M02/M03 A3037 RMK AO2 SLP285 T10181026
Suggested Route
QUOTE WHETT J64 LEPEW J518 AVERE J152 HAR HAR5


View recent IFR Routes data
Notes
EMPTY | NON-REVENUE REPOSITIONING LEG

Charts and Procedures

Charts for KRFD
No chart available
Charts for KWRI
No chart available

Windy.com Weather Map